sensor_id;sensor_type;location;lat;lon;timestamp;pressure;altitude;pressure_sealevel;temperature;humidity
64616;BME280;51027;42.162;24.754;2023-02-11T00:01:33;101714.78;;;-3.37;60.69
64616;BME280;51027;42.162;24.754;2023-02-11T00:03:59;101716.72;;;-3.49;61.03
64616;BME280;51027;42.162;24.754;2023-02-11T00:06:27;101705.72;;;-3.29;60.12
64616;BME280;51027;42.162;24.754;2023-02-11T00:08:54;101710.88;;;-3.46;59.55
64616;BME280;51027;42.162;24.754;2023-02-11T00:11:21;101713.09;;;-3.36;60.02
64616;BME280;51027;42.162;24.754;2023-02-11T00:13:47;101716.31;;;-3.40;59.44
64616;BME280;51027;42.162;24.754;2023-02-11T00:16:14;101700.13;;;-3.72;60.07
64616;BME280;51027;42.162;24.754;2023-02-11T00:18:41;101709.31;;;-3.43;59.28
64616;BME280;51027;42.162;24.754;2023-02-11T00:21:12;101718.47;;;-3.32;59.01
64616;BME280;51027;42.162;24.754;2023-02-11T00:23:38;101716.56;;;-3.36;59.30
64616;BME280;51027;42.162;24.754;2023-02-11T00:26:11;101709.81;;;-3.50;59.60
64616;BME280;51027;42.162;24.754;2023-02-11T00:28:37;101700.47;;;-3.48;59.35
64616;BME280;51027;42.162;24.754;2023-02-11T00:31:02;101718.28;;;-3.53;59.58
64616;BME280;51027;42.162;24.754;2023-02-11T00:33:29;101715.03;;;-3.49;59.77
64616;BME280;51027;42.162;24.754;2023-02-11T00:35:54;101711.09;;;-3.42;59.85
64616;BME280;51027;42.162;24.754;2023-02-11T00:38:19;101703.84;;;-3.49;59.50
64616;BME280;51027;42.162;24.754;2023-02-11T00:40:45;101717.94;;;-3.77;60.52
64616;BME280;51027;42.162;24.754;2023-02-11T00:43:10;101718.06;;;-3.57;60.74
64616;BME280;51027;42.162;24.754;2023-02-11T00:45:36;101691.19;;;-3.62;60.38
64616;BME280;51027;42.162;24.754;2023-02-11T00:48:01;101714.63;;;-3.40;60.39
64616;BME280;51027;42.162;24.754;2023-02-11T00:50:26;101708.72;;;-3.55;60.96
64616;BME280;51027;42.162;24.754;2023-02-11T00:52:52;101681.09;;;-3.58;61.00
64616;BME280;51027;42.162;24.754;2023-02-11T00:55:17;101715.03;;;-3.66;61.25
64616;BME280;51027;42.162;24.754;2023-02-11T00:57:43;101715.63;;;-3.54;60.39
64616;BME280;51027;42.162;24.754;2023-02-11T01:00:12;101704.28;;;-3.58;60.63
64616;BME280;51027;42.162;24.754;2023-02-11T01:02:37;101686.03;;;-3.62;60.37
64616;BME280;51027;42.162;24.754;2023-02-11T01:05:04;101684.28;;;-3.80;60.30
64616;BME280;51027;42.162;24.754;2023-02-11T01:07:29;101719.19;;;-3.68;60.39
64616;BME280;51027;42.162;24.754;2023-02-11T01:09:55;101720.72;;;-3.72;60.17
64616;BME280;51027;42.162;24.754;2023-02-11T01:12:21;101691.34;;;-4.26;61.14
64616;BME280;51027;42.162;24.754;2023-02-11T01:14:47;101705.41;;;-4.19;61.51
64616;BME280;51027;42.162;24.754;2023-02-11T01:17:13;101707.50;;;-4.12;61.05
64616;BME280;51027;42.162;24.754;2023-02-11T01:19:38;101702.50;;;-3.93;61.04
64616;BME280;51027;42.162;24.754;2023-02-11T01:22:04;101697.22;;;-3.96;61.46
64616;BME280;51027;42.162;24.754;2023-02-11T01:24:30;101672.63;;;-4.07;61.50
64616;BME280;51027;42.162;24.754;2023-02-11T01:26:55;101617.63;;;-4.42;61.27
64616;BME280;51027;42.162;24.754;2023-02-11T01:29:21;101679.44;;;-4.08;61.18
64616;BME280;51027;42.162;24.754;2023-02-11T01:31:46;101695.63;;;-4.26;61.81
64616;BME280;51027;42.162;24.754;2023-02-11T01:34:12;101690.78;;;-3.88;61.09
64616;BME280;51027;42.162;24.754;2023-02-11T01:36:38;101687.53;;;-3.84;61.00
64616;BME280;51027;42.162;24.754;2023-02-11T01:39:04;101666.47;;;-3.93;61.05
64616;BME280;51027;42.162;24.754;2023-02-11T01:41:29;101670.53;;;-3.98;61.30
64616;BME280;51027;42.162;24.754;2023-02-11T01:43:55;101668.50;;;-3.87;61.11
64616;BME280;51027;42.162;24.754;2023-02-11T01:49:15;101674.41;;;-3.88;60.80
64616;BME280;51027;42.162;24.754;2023-02-11T01:51:48;101666.47;;;-3.93;60.83
64616;BME280;51027;42.162;24.754;2023-02-11T01:54:18;101664.22;;;-3.87;60.74
64616;BME280;51027;42.162;24.754;2023-02-11T01:57:04;101649.38;;;-4.09;61.19
64616;BME280;51027;42.162;24.754;2023-02-11T02:02:23;101672.75;;;-4.20;61.36
64616;BME280;51027;42.162;24.754;2023-02-11T02:04:59;101647.84;;;-4.05;60.83
64616;BME280;51027;42.162;24.754;2023-02-11T02:07:44;101661.06;;;-3.81;60.52
64616;BME280;51027;42.162;24.754;2023-02-11T02:10:21;101661.25;;;-3.94;61.23
64616;BME280;51027;42.162;24.754;2023-02-11T02:12:48;101640.94;;;-4.06;61.42
64616;BME280;51027;42.162;24.754;2023-02-11T02:15:28;101648.94;;;-3.84;60.86
64616;BME280;51027;42.162;24.754;2023-02-11T02:26:49;101655.78;;;-4.00;61.01
64616;BME280;51027;42.162;24.754;2023-02-11T02:29:35;101654.00;;;-3.85;60.70
64616;BME280;51027;42.162;24.754;2023-02-11T02:38:00;101659.34;;;-4.15;61.61
64616;BME280;51027;42.162;24.754;2023-02-11T02:40:30;101664.91;;;-4.07;61.49
64616;BME280;51027;42.162;24.754;2023-02-11T02:42:57;101667.34;;;-3.92;61.07
64616;BME280;51027;42.162;24.754;2023-02-11T02:45:23;101678.94;;;-4.00;61.45
64616;BME280;51027;42.162;24.754;2023-02-11T02:47:49;101679.75;;;-4.01;61.87
64616;BME280;51027;42.162;24.754;2023-02-11T02:50:16;101687.78;;;-4.12;62.29
64616;BME280;51027;42.162;24.754;2023-02-11T02:53:27;101681.78;;;-4.12;62.31
64616;BME280;51027;42.162;24.754;2023-02-11T03:04:19;101673.97;;;-4.14;62.26
64616;BME280;51027;42.162;24.754;2023-02-11T03:06:55;101650.81;;;-4.30;61.98
64616;BME280;51027;42.162;24.754;2023-02-11T03:09:33;101665.06;;;-4.37;62.47
64616;BME280;51027;42.162;24.754;2023-02-11T03:12:03;101656.22;;;-4.42;62.26
64616;BME280;51027;42.162;24.754;2023-02-11T03:14:29;101680.09;;;-4.44;62.60
64616;BME280;51027;42.162;24.754;2023-02-11T03:16:57;101672.56;;;-4.72;62.81
64616;BME280;51027;42.162;24.754;2023-02-11T03:19:31;101673.09;;;-4.47;62.28
64616;BME280;51027;42.162;24.754;2023-02-11T03:22:02;101676.63;;;-4.45;62.59
64616;BME280;51027;42.162;24.754;2023-02-11T03:24:34;101670.53;;;-4.47;62.18
64616;BME280;51027;42.162;24.754;2023-02-11T03:27:08;101675.28;;;-4.85;63.38
64616;BME280;51027;42.162;24.754;2023-02-11T03:30:09;101671.03;;;-4.85;63.24
64616;BME280;51027;42.162;24.754;2023-02-11T03:32:40;101652.97;;;-4.86;62.88
64616;BME280;51027;42.162;24.754;2023-02-11T03:35:31;101677.63;;;-4.90;63.69
64616;BME280;51027;42.162;24.754;2023-02-11T03:38:01;101677.44;;;-4.93;63.60
64616;BME280;51027;42.162;24.754;2023-02-11T03:40:35;101677.19;;;-4.98;63.91
64616;BME280;51027;42.162;24.754;2023-02-11T03:43:13;101675.44;;;-4.99;64.16
64616;BME280;51027;42.162;24.754;2023-02-11T03:45:42;101680.94;;;-5.07;64.17
64616;BME280;51027;42.162;24.754;2023-02-11T03:48:34;101678.81;;;-4.83;63.72
64616;BME280;51027;42.162;24.754;2023-02-11T03:51:02;101688.66;;;-4.76;63.46
64616;BME280;51027;42.162;24.754;2023-02-11T03:53:30;101683.59;;;-5.06;64.19
64616;BME280;51027;42.162;24.754;2023-02-11T03:55:59;101677.31;;;-4.80;64.07
64616;BME280;51027;42.162;24.754;2023-02-11T03:58:27;101665.75;;;-5.03;64.27
64616;BME280;51027;42.162;24.754;2023-02-11T04:00:52;101669.59;;;-5.11;64.48
64616;BME280;51027;42.162;24.754;2023-02-11T04:03:18;101673.97;;;-4.94;64.51
64616;BME280;51027;42.162;24.754;2023-02-11T04:05:43;101677.91;;;-5.00;64.55
64616;BME280;51027;42.162;24.754;2023-02-11T04:08:08;101678.97;;;-4.80;64.11
64616;BME280;51027;42.162;24.754;2023-02-11T04:10:34;101675.81;;;-4.91;64.27
64616;BME280;51027;42.162;24.754;2023-02-11T04:12:59;101683.53;;;-4.91;64.21
64616;BME280;51027;42.162;24.754;2023-02-11T04:15:25;101652.31;;;-4.99;63.83
64616;BME280;51027;42.162;24.754;2023-02-11T04:17:50;101682.41;;;-4.96;64.56
64616;BME280;51027;42.162;24.754;2023-02-11T04:20:16;101668.41;;;-5.01;64.87
64616;BME280;51027;42.162;24.754;2023-02-11T04:22:41;101677.19;;;-4.98;64.58
64616;BME280;51027;42.162;24.754;2023-02-11T04:25:08;101679.75;;;-4.98;64.99
64616;BME280;51027;42.162;24.754;2023-02-11T04:27:34;101672.88;;;-4.99;64.90
64616;BME280;51027;42.162;24.754;2023-02-11T04:30:00;101674.56;;;-4.83;64.68
64616;BME280;51027;42.162;24.754;2023-02-11T04:32:26;101670.50;;;-4.79;64.43
64616;BME280;51027;42.162;24.754;2023-02-11T04:34:51;101665.50;;;-4.76;64.58
64616;BME280;51027;42.162;24.754;2023-02-11T04:37:16;101675.28;;;-4.85;65.02
64616;BME280;51027;42.162;24.754;2023-02-11T04:39:42;101658.56;;;-4.94;64.72
64616;BME280;51027;42.162;24.754;2023-02-11T04:42:07;101651.81;;;-4.92;65.01
64616;BME280;51027;42.162;24.754;2023-02-11T04:44:33;101646.16;;;-4.86;64.91
64616;BME280;51027;42.162;24.754;2023-02-11T04:46:58;101638.66;;;-4.98;65.13
64616;BME280;51027;42.162;24.754;2023-02-11T04:49:24;101659.94;;;-5.00;65.26
64616;BME280;51027;42.162;24.754;2023-02-11T04:51:50;101659.38;;;-4.95;65.27
64616;BME280;51027;42.162;24.754;2023-02-11T04:54:16;101659.53;;;-4.92;65.16
64616;BME280;51027;42.162;24.754;2023-02-11T04:56:41;101666.41;;;-5.07;65.43
64616;BME280;51027;42.162;24.754;2023-02-11T04:59:06;101660.47;;;-5.06;65.66
64616;BME280;51027;42.162;24.754;2023-02-11T05:01:32;101665.53;;;-5.22;66.40
64616;BME280;51027;42.162;24.754;2023-02-11T05:03:58;101631.91;;;-5.27;65.54
64616;BME280;51027;42.162;24.754;2023-02-11T05:06:24;101665.53;;;-5.22;65.89
64616;BME280;51027;42.162;24.754;2023-02-11T05:08:49;101661.84;;;-5.27;66.09
64616;BME280;51027;42.162;24.754;2023-02-11T05:11:18;101658.28;;;-5.14;65.88
64616;BME280;51027;42.162;24.754;2023-02-11T05:13:44;101658.34;;;-5.13;65.67
64616;BME280;51027;42.162;24.754;2023-02-11T05:16:10;101643.31;;;-5.22;65.53
64616;BME280;51027;42.162;24.754;2023-02-11T05:18:37;101666.25;;;-5.10;66.04
64616;BME280;51027;42.162;24.754;2023-02-11T05:21:11;101664.09;;;-5.02;66.30
64616;BME280;51027;42.162;24.754;2023-02-11T05:23:37;101661.13;;;-5.10;65.87
64616;BME280;51027;42.162;24.754;2023-02-11T05:26:03;101661.34;;;-5.05;66.09
64616;BME280;51027;42.162;24.754;2023-02-11T05:28:28;101615.13;;;-5.36;66.37
64616;BME280;51027;42.162;24.754;2023-02-11T05:30:54;101652.22;;;-5.31;67.13
64616;BME280;51027;42.162;24.754;2023-02-11T05:33:19;101672.47;;;-5.21;67.04
64616;BME280;51027;42.162;24.754;2023-02-11T05:35:45;101667.50;;;-5.33;67.29
64616;BME280;51027;42.162;24.754;2023-02-11T05:38:10;101659.53;;;-5.23;66.89
64616;BME280;51027;42.162;24.754;2023-02-11T05:40:36;101654.97;;;-5.12;66.42
64616;BME280;51027;42.162;24.754;2023-02-11T05:43:02;101662.53;;;-4.84;65.66
64616;BME280;51027;42.162;24.754;2023-02-11T05:45:27;101645.78;;;-4.92;65.59
64616;BME280;51027;42.162;24.754;2023-02-11T05:47:53;101662.28;;;-4.72;64.92
64616;BME280;51027;42.162;24.754;2023-02-11T05:50:19;101657.34;;;-4.69;64.48
64616;BME280;51027;42.162;24.754;2023-02-11T05:52:44;101674.13;;;-4.43;64.28
64616;BME280;51027;42.162;24.754;2023-02-11T05:55:10;101681.13;;;-4.24;63.79
64616;BME280;51027;42.162;24.754;2023-02-11T05:57:35;101668.06;;;-4.29;64.14
64616;BME280;51027;42.162;24.754;2023-02-11T06:00:01;101677.19;;;-4.01;63.59
64616;BME280;51027;42.162;24.754;2023-02-11T06:02:27;101680.25;;;-4.09;63.35
64616;BME280;51027;42.162;24.754;2023-02-11T06:04:52;101672.75;;;-3.88;62.92
64616;BME280;51027;42.162;24.754;2023-02-11T06:07:18;101679.13;;;-3.63;62.21
64616;BME280;51027;42.162;24.754;2023-02-11T06:09:44;101676.41;;;-3.66;62.02
64616;BME280;51027;42.162;24.754;2023-02-11T06:12:09;101671.03;;;-3.53;61.92
64616;BME280;51027;42.162;24.754;2023-02-11T06:14:35;101667.97;;;-3.28;61.18
64616;BME280;51027;42.162;24.754;2023-02-11T06:17:00;101671.94;;;-2.99;60.30
64616;BME280;51027;42.162;24.754;2023-02-11T06:19:26;101663.03;;;-2.69;59.29
64616;BME280;51027;42.162;24.754;2023-02-11T06:21:51;101656.41;;;-1.45;55.29
64616;BME280;51027;42.162;24.754;2023-02-11T06:24:17;101640.16;;;-1.42;54.23
64616;BME280;51027;42.162;24.754;2023-02-11T06:26:42;101675.97;;;-1.91;55.37
64616;BME280;51027;42.162;24.754;2023-02-11T06:29:08;101674.31;;;-1.28;54.48
64616;BME280;51027;42.162;24.754;2023-02-11T06:31:36;101675.81;;;-1.94;55.55
64616;BME280;51027;42.162;24.754;2023-02-11T06:34:01;101665.19;;;-2.41;57.15
64616;BME280;51027;42.162;24.754;2023-02-11T06:36:27;101679.84;;;-1.40;54.75
64616;BME280;51027;42.162;24.754;2023-02-11T06:38:52;101655.28;;;-0.41;51.93
64616;BME280;51027;42.162;24.754;2023-02-11T06:41:18;101679.97;;;1.01;47.79
64616;BME280;51027;42.162;24.754;2023-02-11T06:43:47;101673.19;;;1.93;45.45
64616;BME280;51027;42.162;24.754;2023-02-11T06:46:12;101662.78;;;1.93;44.75
64616;BME280;51027;42.162;24.754;2023-02-11T06:48:38;101650.28;;;2.10;44.11
64616;BME280;51027;42.162;24.754;2023-02-11T06:51:05;101667.16;;;1.05;45.62
64616;BME280;51027;42.162;24.754;2023-02-11T06:53:34;101632.00;;;-0.41;49.92
64616;BME280;51027;42.162;24.754;2023-02-11T06:56:04;101642.44;;;3.15;42.70
64616;BME280;51027;42.162;24.754;2023-02-11T06:58:30;101657.88;;;1.72;44.53
64616;BME280;51027;42.162;24.754;2023-02-11T07:00:56;101653.88;;;3.22;41.86
64616;BME280;51027;42.162;24.754;2023-02-11T07:03:21;101643.97;;;2.35;42.51
64616;BME280;51027;42.162;24.754;2023-02-11T07:05:46;101653.84;;;-0.33;49.09
64616;BME280;51027;42.162;24.754;2023-02-11T07:08:12;101647.38;;;0.29;49.09
64616;BME280;51027;42.162;24.754;2023-02-11T07:10:38;101651.28;;;-0.09;49.13
64616;BME280;51027;42.162;24.754;2023-02-11T07:13:03;101651.53;;;0.24;49.14
64616;BME280;51027;42.162;24.754;2023-02-11T07:15:29;101648.56;;;5.03;39.78
64616;BME280;51027;42.162;24.754;2023-02-11T07:17:54;101634.81;;;6.71;35.62
64616;BME280;51027;42.162;24.754;2023-02-11T07:20:19;101641.72;;;4.55;37.69
64616;BME280;51027;42.162;24.754;2023-02-11T07:22:45;101654.22;;;6.97;35.09
64616;BME280;51027;42.162;24.754;2023-02-11T07:25:10;101609.94;;;7.44;33.86
64616;BME280;51027;42.162;24.754;2023-02-11T07:27:36;101635.44;;;7.87;32.84
64616;BME280;51027;42.162;24.754;2023-02-11T07:30:02;101637.41;;;6.69;34.17
64616;BME280;51027;42.162;24.754;2023-02-11T07:32:27;101613.69;;;6.51;34.33
64616;BME280;51027;42.162;24.754;2023-02-11T07:34:53;101627.63;;;8.03;32.99
64616;BME280;51027;42.162;24.754;2023-02-11T07:37:18;101621.28;;;9.81;30.33
64616;BME280;51027;42.162;24.754;2023-02-11T07:39:43;101548.03;;;8.30;30.89
64616;BME280;51027;42.162;24.754;2023-02-11T07:42:09;101634.38;;;7.42;32.99
64616;BME280;51027;42.162;24.754;2023-02-11T07:44:34;101617.00;;;6.30;34.82
64616;BME280;51027;42.162;24.754;2023-02-11T07:47:01;101601.63;;;6.65;34.96
64616;BME280;51027;42.162;24.754;2023-02-11T07:49:26;101621.16;;;10.04;30.26
64616;BME280;51027;42.162;24.754;2023-02-11T07:51:52;101606.59;;;10.71;29.05
64616;BME280;51027;42.162;24.754;2023-02-11T07:54:17;101604.88;;;10.73;28.99
64616;BME280;51027;42.162;24.754;2023-02-11T07:56:43;101612.66;;;9.47;30.11
64616;BME280;51027;42.162;24.754;2023-02-11T07:59:09;101635.13;;;4.78;37.20
64616;BME280;51027;42.162;24.754;2023-02-11T08:01:35;101631.94;;;4.99;37.67
64616;BME280;51027;42.162;24.754;2023-02-11T08:04:01;101614.84;;;6.86;35.22
64616;BME280;51027;42.162;24.754;2023-02-11T08:06:30;101615.31;;;6.35;36.30
64616;BME280;51027;42.162;24.754;2023-02-11T08:08:56;101612.59;;;5.47;38.15
64616;BME280;51027;42.162;24.754;2023-02-11T08:11:24;101619.16;;;5.16;38.15
64616;BME280;51027;42.162;24.754;2023-02-11T08:13:51;101620.94;;;5.20;39.45
64616;BME280;51027;42.162;24.754;2023-02-11T08:16:18;101616.25;;;4.95;39.25
64616;BME280;51027;42.162;24.754;2023-02-11T08:18:44;101608.25;;;6.25;37.83
64616;BME280;51027;42.162;24.754;2023-02-11T08:21:09;101602.25;;;7.99;34.18
64616;BME280;51027;42.162;24.754;2023-02-11T08:23:38;101573.88;;;10.96;30.00
64616;BME280;51027;42.162;24.754;2023-02-11T08:26:05;101597.91;;;8.33;33.21
64616;BME280;51027;42.162;24.754;2023-02-11T08:28:35;101602.25;;;6.35;36.39
64616;BME280;51027;42.162;24.754;2023-02-11T08:31:05;101588.53;;;4.47;40.94
64616;BME280;51027;42.162;24.754;2023-02-11T08:33:32;101593.41;;;7.56;36.67
64616;BME280;51027;42.162;24.754;2023-02-11T08:35:57;101571.41;;;11.53;30.35
64616;BME280;51027;42.162;24.754;2023-02-11T08:38:23;101561.63;;;9.79;31.06
64616;BME280;51027;42.162;24.754;2023-02-11T08:40:48;101588.19;;;9.27;33.04
64616;BME280;51027;42.162;24.754;2023-02-11T08:43:14;101576.50;;;10.96;30.87
64616;BME280;51027;42.162;24.754;2023-02-11T08:45:39;101576.75;;;10.74;30.89
64616;BME280;51027;42.162;24.754;2023-02-11T08:48:05;101571.59;;;11.40;30.00
64616;BME280;51027;42.162;24.754;2023-02-11T08:50:30;101558.44;;;12.57;28.82
64616;BME280;51027;42.162;24.754;2023-02-11T08:52:56;101558.22;;;13.59;26.93
64616;BME280;51027;42.162;24.754;2023-02-11T08:55:21;101557.06;;;14.09;25.32
64616;BME280;51027;42.162;24.754;2023-02-11T08:57:47;101561.88;;;15.61;24.94
64616;BME280;51027;42.162;24.754;2023-02-11T09:00:13;101559.25;;;16.17;24.31
64616;BME280;51027;42.162;24.754;2023-02-11T09:02:39;101560.84;;;14.72;24.91
64616;BME280;51027;42.162;24.754;2023-02-11T09:05:04;101550.44;;;15.27;24.54
64616;BME280;51027;42.162;24.754;2023-02-11T09:07:30;101545.66;;;15.09;25.41
64616;BME280;51027;42.162;24.754;2023-02-11T09:09:55;101544.81;;;15.69;24.21
64616;BME280;51027;42.162;24.754;2023-02-11T09:12:21;101554.63;;;14.01;25.59
64616;BME280;51027;42.162;24.754;2023-02-11T09:14:46;101555.66;;;10.74;29.06
64616;BME280;51027;42.162;24.754;2023-02-11T09:17:12;101550.69;;;12.46;27.99
64616;BME280;51027;42.162;24.754;2023-02-11T09:19:37;101545.97;;;14.29;25.96
64616;BME280;51027;42.162;24.754;2023-02-11T09:22:02;101544.94;;;14.72;24.23
64616;BME280;51027;42.162;24.754;2023-02-11T09:24:28;101542.97;;;15.99;23.97
64616;BME280;51027;42.162;24.754;2023-02-11T09:26:53;101516.72;;;15.61;23.59
64616;BME280;51027;42.162;24.754;2023-02-11T09:29:19;101507.06;;;13.95;25.25
64616;BME280;51027;42.162;24.754;2023-02-11T09:31:44;101535.59;;;14.20;25.47
64616;BME280;51027;42.162;24.754;2023-02-11T09:34:10;101533.91;;;12.49;26.26
64616;BME280;51027;42.162;24.754;2023-02-11T09:36:37;101531.22;;;14.20;25.06
64616;BME280;51027;42.162;24.754;2023-02-11T09:39:06;101535.66;;;14.18;23.79
64616;BME280;51027;42.162;24.754;2023-02-11T09:43:59;101507.94;;;17.39;21.17
64616;BME280;51027;42.162;24.754;2023-02-11T09:46:26;101510.28;;;15.69;22.54
64616;BME280;51027;42.162;24.754;2023-02-11T09:48:55;101514.56;;;10.51;27.57
64616;BME280;51027;42.162;24.754;2023-02-11T09:51:43;101512.59;;;13.47;25.07
64616;BME280;51027;42.162;24.754;2023-02-11T09:54:18;101502.41;;;15.37;22.93
64616;BME280;51027;42.162;24.754;2023-02-11T09:56:45;101489.00;;;11.95;26.97
64616;BME280;51027;42.162;24.754;2023-02-11T09:59:14;101481.06;;;16.49;22.54
64616;BME280;51027;42.162;24.754;2023-02-11T10:08:00;101462.03;;;17.78;20.41
64616;BME280;51027;42.162;24.754;2023-02-11T10:10:53;101377.00;;;18.33;19.65
64616;BME280;51027;42.162;24.754;2023-02-11T10:19:33;101437.72;;;13.42;24.69
64616;BME280;51027;42.162;24.754;2023-02-11T10:22:16;101436.59;;;13.88;24.80
64616;BME280;51027;42.162;24.754;2023-02-11T10:24:51;101429.00;;;15.90;22.79
64616;BME280;51027;42.162;24.754;2023-02-11T10:27:30;101415.94;;;16.84;21.79
64616;BME280;51027;42.162;24.754;2023-02-11T10:30:03;101406.97;;;18.58;19.97
64616;BME280;51027;42.162;24.754;2023-02-11T10:32:51;101414.63;;;17.19;21.33
64616;BME280;51027;42.162;24.754;2023-02-11T10:35:21;101373.41;;;18.34;19.79
64616;BME280;51027;42.162;24.754;2023-02-11T10:37:47;101383.66;;;17.38;20.41
64616;BME280;51027;42.162;24.754;2023-02-11T10:40:19;101388.25;;;16.16;22.18
64616;BME280;51027;42.162;24.754;2023-02-11T10:42:48;101389.34;;;17.29;21.12
64616;BME280;51027;42.162;24.754;2023-02-11T10:45:21;101382.03;;;19.72;18.67
64616;BME280;51027;42.162;24.754;2023-02-11T10:47:47;101371.25;;;17.59;20.01
64616;BME280;51027;42.162;24.754;2023-02-11T10:52:43;101359.50;;;19.40;18.73
64616;BME280;51027;42.162;24.754;2023-02-11T10:57:37;101347.16;;;19.56;18.28
64616;BME280;51027;42.162;24.754;2023-02-11T11:00:05;101344.22;;;18.50;20.18
64616;BME280;51027;42.162;24.754;2023-02-11T11:02:35;101323.22;;;16.73;20.97
64616;BME280;51027;42.162;24.754;2023-02-11T11:05:18;101336.66;;;16.70;20.92
64616;BME280;51027;42.162;24.754;2023-02-11T11:07:58;101320.94;;;16.16;22.34
64616;BME280;51027;42.162;24.754;2023-02-11T11:10:32;101314.91;;;15.86;21.80
64616;BME280;51027;42.162;24.754;2023-02-11T11:12:58;101313.03;;;16.12;21.75
64616;BME280;51027;42.162;24.754;2023-02-11T11:15:29;101311.63;;;14.37;24.17
64616;BME280;51027;42.162;24.754;2023-02-11T11:18:27;101300.25;;;17.58;20.53
64616;BME280;51027;42.162;24.754;2023-02-11T11:21:05;101295.72;;;20.69;17.90
64616;BME280;51027;42.162;24.754;2023-02-11T11:23:34;101298.88;;;16.12;19.95
64616;BME280;51027;42.162;24.754;2023-02-11T11:26:12;101298.88;;;15.36;21.08
64616;BME280;51027;42.162;24.754;2023-02-11T11:28:56;101272.25;;;13.62;22.13
64616;BME280;51027;42.162;24.754;2023-02-11T11:31:27;101281.59;;;16.25;20.19
64616;BME280;51027;42.162;24.754;2023-02-11T11:33:57;101280.75;;;18.56;18.41
64616;BME280;51027;42.162;24.754;2023-02-11T11:36:43;101263.25;;;19.42;18.05
64616;BME280;51027;42.162;24.754;2023-02-11T11:39:28;101271.91;;;18.17;19.15
64616;BME280;51027;42.162;24.754;2023-02-11T11:42:00;101253.94;;;16.29;20.24
64616;BME280;51027;42.162;24.754;2023-02-11T11:49:54;101250.13;;;10.63;25.89
64616;BME280;51027;42.162;24.754;2023-02-11T11:52:39;101227.59;;;10.99;24.81
64616;BME280;51027;42.162;24.754;2023-02-11T11:55:10;101234.94;;;12.24;24.02
64616;BME280;51027;42.162;24.754;2023-02-11T11:57:38;101236.44;;;12.37;23.97
64616;BME280;51027;42.162;24.754;2023-02-11T12:00:04;101232.22;;;13.72;22.51
64616;BME280;51027;42.162;24.754;2023-02-11T12:05:13;101226.09;;;16.16;19.34
64616;BME280;51027;42.162;24.754;2023-02-11T12:08:02;101219.06;;;15.90;19.84
64616;BME280;51027;42.162;24.754;2023-02-11T12:10:57;101217.91;;;14.10;21.05
64616;BME280;51027;42.162;24.754;2023-02-11T12:13:39;101211.09;;;15.40;19.08
64616;BME280;51027;42.162;24.754;2023-02-11T12:16:10;101206.19;;;15.54;19.16
64616;BME280;51027;42.162;24.754;2023-02-11T12:19:02;101200.63;;;14.27;20.51
64616;BME280;51027;42.162;24.754;2023-02-11T12:21:41;101194.94;;;12.79;22.28
64616;BME280;51027;42.162;24.754;2023-02-11T12:29:54;101194.94;;;14.68;21.21
64616;BME280;51027;42.162;24.754;2023-02-11T12:33:04;101179.72;;;18.49;17.87
64616;BME280;51027;42.162;24.754;2023-02-11T12:35:53;101177.63;;;17.60;18.33
64616;BME280;51027;42.162;24.754;2023-02-11T12:38:29;101180.13;;;18.58;17.54
64616;BME280;51027;42.162;24.754;2023-02-11T12:41:13;101161.56;;;18.38;17.32
64616;BME280;51027;42.162;24.754;2023-02-11T12:43:43;101181.88;;;17.03;18.02
64616;BME280;51027;42.162;24.754;2023-02-11T12:46:37;101186.91;;;14.72;19.28
64616;BME280;51027;42.162;24.754;2023-02-11T12:51:48;101160.44;;;19.66;15.92
64616;BME280;51027;42.162;24.754;2023-02-11T12:57:14;101157.72;;;18.81;16.13
64616;BME280;51027;42.162;24.754;2023-02-11T13:00:19;101164.22;;;14.33;20.39
64616;BME280;51027;42.162;24.754;2023-02-11T13:03:06;101147.31;;;16.13;19.18
64616;BME280;51027;42.162;24.754;2023-02-11T13:05:44;101109.41;;;12.45;22.64
64616;BME280;51027;42.162;24.754;2023-02-11T13:08:18;101153.22;;;12.18;23.19
64616;BME280;51027;42.162;24.754;2023-02-11T13:10:48;101142.38;;;12.67;22.88
64616;BME280;51027;42.162;24.754;2023-02-11T13:15:50;101128.69;;;20.25;16.10
64616;BME280;51027;42.162;24.754;2023-02-11T13:26:41;101122.13;;;22.90;13.67
64616;BME280;51027;42.162;24.754;2023-02-11T13:32:17;101112.13;;;20.18;13.99
64616;BME280;51027;42.162;24.754;2023-02-11T13:40:09;101084.59;;;20.48;14.01
64616;BME280;51027;42.162;24.754;2023-02-11T13:42:53;101118.16;;;21.58;13.58
64616;BME280;51027;42.162;24.754;2023-02-11T13:45:45;101119.06;;;22.28;12.84
64616;BME280;51027;42.162;24.754;2023-02-11T13:48:20;101117.00;;;23.38;12.28
64616;BME280;51027;42.162;24.754;2023-02-11T13:50:53;101112.66;;;24.11;11.43
64616;BME280;51027;42.162;24.754;2023-02-11T13:53:20;101113.44;;;23.37;11.65
64616;BME280;51027;42.162;24.754;2023-02-11T13:55:48;101109.06;;;21.89;12.80
64616;BME280;51027;42.162;24.754;2023-02-11T13:58:33;101107.28;;;19.93;13.70
64616;BME280;51027;42.162;24.754;2023-02-11T14:01:06;101109.63;;;20.15;13.76
64616;BME280;51027;42.162;24.754;2023-02-11T14:03:37;101098.47;;;20.23;13.72
64616;BME280;51027;42.162;24.754;2023-02-11T14:06:27;101085.59;;;18.98;14.70
64616;BME280;51027;42.162;24.754;2023-02-11T14:09:38;101081.44;;;18.03;15.29
64616;BME280;51027;42.162;24.754;2023-02-11T14:12:36;101080.88;;;14.42;18.16
64616;BME280;51027;42.162;24.754;2023-02-11T14:17:31;101059.16;;;16.68;16.98
64616;BME280;51027;42.162;24.754;2023-02-11T14:22:49;101059.59;;;18.14;16.93
64616;BME280;51027;42.162;24.754;2023-02-11T14:25:22;101059.47;;;17.21;17.37
64616;BME280;51027;42.162;24.754;2023-02-11T14:27:55;101068.00;;;16.68;17.25